createdAt,value
2022-11-21T00:01:31.803Z,15.80
2022-11-21T00:04:00.686Z,14.00
2022-11-21T00:06:29.619Z,15.70
2022-11-21T00:08:58.510Z,16.88
2022-11-21T00:11:27.523Z,17.48
2022-11-21T00:13:56.355Z,17.58
2022-11-21T00:16:25.354Z,18.17
2022-11-21T00:18:54.292Z,16.25
2022-11-21T00:21:23.199Z,14.77
2022-11-21T00:23:53.671Z,15.73
2022-11-21T00:26:22.544Z,15.35
2022-11-21T00:28:51.412Z,15.25
2022-11-21T00:31:25.792Z,12.13
2022-11-21T00:33:54.726Z,11.52
2022-11-21T00:36:23.618Z,13.73
2022-11-21T00:38:52.532Z,14.10
2022-11-21T00:41:21.590Z,12.63
2022-11-21T00:43:50.580Z,13.63
2022-11-21T00:46:19.652Z,12.05
2022-11-21T00:48:48.578Z,9.15
2022-11-21T00:51:17.455Z,9.73
2022-11-21T00:53:46.457Z,8.90
2022-11-21T00:56:15.400Z,9.32
2022-11-21T00:58:44.304Z,9.02
2022-11-21T01:01:16.256Z,8.30
2022-11-21T01:03:47.294Z,8.80
2022-11-21T01:06:17.733Z,9.20
2022-11-21T01:08:47.071Z,9.60
2022-11-21T01:11:18.883Z,10.63
2022-11-21T01:13:48.787Z,8.88
2022-11-21T01:16:23.663Z,9.10
2022-11-21T01:18:53.069Z,7.88
2022-11-21T01:21:40.962Z,8.05
2022-11-21T01:24:13.467Z,7.30
2022-11-21T01:26:42.449Z,7.28
2022-11-21T01:29:11.331Z,6.03
2022-11-21T01:31:40.213Z,6.28
2022-11-21T01:34:12.845Z,6.93
2022-11-21T01:36:41.868Z,6.88
2022-11-21T01:39:12.864Z,6.22
2022-11-21T01:41:46.073Z,5.47
2022-11-21T01:44:23.761Z,6.03
2022-11-21T01:46:53.793Z,6.55
2022-11-21T01:49:30.774Z,5.85
2022-11-21T01:52:07.720Z,5.30
2022-11-21T01:54:45.866Z,5.60
2022-11-21T01:57:21.773Z,5.80
2022-11-21T01:59:50.613Z,5.30
2022-11-21T02:02:22.468Z,5.90
2022-11-21T02:04:53.777Z,8.52
2022-11-21T02:07:25.695Z,7.57
2022-11-21T02:09:59.020Z,6.20
2022-11-21T02:12:41.699Z,5.45
2022-11-21T02:15:14.502Z,5.22
2022-11-21T02:17:44.005Z,5.72
2022-11-21T02:20:17.802Z,6.07
2022-11-21T02:25:35.538Z,4.65
2022-11-21T02:28:07.925Z,4.53
2022-11-21T02:30:40.456Z,4.47
2022-11-21T02:33:16.078Z,4.60
2022-11-21T02:35:45.330Z,4.40
2022-11-21T02:38:17.273Z,5.07
2022-11-21T02:41:27.499Z,5.32
2022-11-21T02:44:32.506Z,4.22
2022-11-21T02:47:01.391Z,5.53
2022-11-21T02:49:43.687Z,4.93
2022-11-21T02:52:12.711Z,5.10
2022-11-21T02:54:41.594Z,5.18
2022-11-21T02:57:10.573Z,5.15
2022-11-21T02:59:39.505Z,5.95
2022-11-21T03:02:08.413Z,5.65
2022-11-21T03:04:37.374Z,6.45
2022-11-21T03:07:06.331Z,5.72
2022-11-21T03:09:35.201Z,4.53
2022-11-21T03:12:08.667Z,5.60
2022-11-21T03:14:38.437Z,5.70
2022-11-21T03:17:07.441Z,5.60
2022-11-21T03:19:36.383Z,5.43
2022-11-21T03:22:05.843Z,5.90
2022-11-21T03:24:34.868Z,5.30
2022-11-21T03:27:03.859Z,5.50
2022-11-21T03:29:32.889Z,4.90
2022-11-21T03:32:01.937Z,6.00
2022-11-21T03:34:30.799Z,4.85
2022-11-21T03:36:59.697Z,4.85
2022-11-21T03:39:28.649Z,5.18
2022-11-21T03:41:57.921Z,5.40
2022-11-21T03:44:27.079Z,5.57
2022-11-21T03:46:56.171Z,5.57
2022-11-21T03:49:25.063Z,5.93
2022-11-21T03:51:53.980Z,6.72
2022-11-21T03:54:22.923Z,6.00
2022-11-21T03:56:51.834Z,6.45
2022-11-21T03:59:20.818Z,7.35
2022-11-21T04:01:49.732Z,6.03
2022-11-21T04:04:18.758Z,6.10
2022-11-21T04:06:47.713Z,6.20
2022-11-21T04:09:16.642Z,6.07
2022-11-21T04:11:45.585Z,7.38
2022-11-21T04:14:14.443Z,5.15
2022-11-21T04:16:43.294Z,5.18
2022-11-21T04:19:12.184Z,4.97
2022-11-21T04:21:43.988Z,4.90
2022-11-21T04:24:13.164Z,5.18
2022-11-21T04:26:42.257Z,5.05
2022-11-21T04:29:11.335Z,5.18
2022-11-21T04:31:40.208Z,5.18
2022-11-21T04:34:12.136Z,5.25
2022-11-21T04:36:43.892Z,5.60
2022-11-21T04:39:12.801Z,5.10
2022-11-21T04:41:41.643Z,4.82
2022-11-21T04:44:10.515Z,4.15
2022-11-21T04:46:39.587Z,4.70
2022-11-21T04:49:08.573Z,3.70
2022-11-21T04:51:37.459Z,4.43
2022-11-21T04:54:06.487Z,3.83
2022-11-21T04:56:35.376Z,3.85
2022-11-21T04:59:04.318Z,4.13
2022-11-21T05:01:33.229Z,4.72
2022-11-21T05:04:02.073Z,19.50
2022-11-21T05:06:31.060Z,4.78
2022-11-21T05:08:59.918Z,5.05
2022-11-21T05:11:47.074Z,3.88
2022-11-21T05:14:16.954Z,6.47
2022-11-21T05:16:45.791Z,4.57
2022-11-21T05:19:14.793Z,4.38
2022-11-21T05:21:43.709Z,4.72
2022-11-21T05:24:12.614Z,4.93
2022-11-21T05:26:41.666Z,4.35
2022-11-21T05:29:10.571Z,4.05
2022-11-21T05:31:39.517Z,3.83
2022-11-21T05:34:08.523Z,4.15
2022-11-21T05:36:37.421Z,4.90
2022-11-21T05:39:07.016Z,4.47
2022-11-21T05:41:35.958Z,4.80
2022-11-21T05:44:04.875Z,4.40
2022-11-21T05:46:33.861Z,5.18
2022-11-21T05:49:02.810Z,4.85
2022-11-21T05:51:31.745Z,4.85
2022-11-21T05:54:01.579Z,4.95
2022-11-21T05:56:30.695Z,4.50
2022-11-21T05:59:00.335Z,4.90
2022-11-21T06:01:47.479Z,4.20
2022-11-21T06:04:16.607Z,4.43
2022-11-21T06:06:45.478Z,4.45
2022-11-21T06:09:14.347Z,4.03
2022-11-21T06:11:43.186Z,4.28
2022-11-21T06:14:12.049Z,5.00
2022-11-21T06:16:43.557Z,4.30
2022-11-21T06:19:12.443Z,7.32
2022-11-21T06:21:42.148Z,7.57
2022-11-21T06:24:16.052Z,3.80
2022-11-21T06:26:48.364Z,3.50
2022-11-21T06:29:17.944Z,5.18
2022-11-21T06:31:46.956Z,4.15
2022-11-21T06:34:15.975Z,4.15
2022-11-21T06:36:45.889Z,4.68
2022-11-21T06:39:14.895Z,4.40
2022-11-21T06:41:45.444Z,4.28
2022-11-21T06:44:14.266Z,3.90
2022-11-21T06:46:45.870Z,3.35
2022-11-21T06:49:18.748Z,3.70
2022-11-21T06:51:47.654Z,4.57
2022-11-21T06:54:17.172Z,4.63
2022-11-21T06:56:46.491Z,4.20
2022-11-21T06:59:15.525Z,4.25
2022-11-21T07:01:44.445Z,4.20
2022-11-21T07:04:13.779Z,4.07
2022-11-21T07:06:42.708Z,4.40
2022-11-21T07:09:32.100Z,4.28
2022-11-21T07:12:22.134Z,5.47
2022-11-21T07:14:51.078Z,3.53
2022-11-21T07:17:20.017Z,4.15
2022-11-21T07:19:49.980Z,4.43
2022-11-21T07:22:18.857Z,4.38
2022-11-21T07:24:47.779Z,4.55
2022-11-21T07:27:16.647Z,4.45
2022-11-21T07:29:45.508Z,4.75
2022-11-21T07:32:14.424Z,4.05
2022-11-21T07:34:43.344Z,3.92
2022-11-21T07:37:12.280Z,4.68
2022-11-21T07:39:41.213Z,3.42
2022-11-21T07:42:10.116Z,3.30
2022-11-21T07:44:39.038Z,4.25
2022-11-21T07:47:07.937Z,4.20
2022-11-21T07:49:36.846Z,7.80
2022-11-21T07:52:05.906Z,3.80
2022-11-21T07:54:34.775Z,4.18
2022-11-21T07:57:03.963Z,3.83
2022-11-21T07:59:32.866Z,4.47
2022-11-21T08:02:01.737Z,3.88
2022-11-21T08:04:31.106Z,3.45
2022-11-21T08:07:00.088Z,4.10
2022-11-21T08:09:35.977Z,4.03
2022-11-21T08:12:08.010Z,5.55
2022-11-21T08:14:37.032Z,7.47
2022-11-21T08:17:07.211Z,4.25
2022-11-21T08:19:36.547Z,4.15
2022-11-21T08:22:05.506Z,3.90
2022-11-21T08:24:34.411Z,4.18
2022-11-21T08:27:03.483Z,4.80
2022-11-21T08:29:32.353Z,4.32
2022-11-21T08:32:01.185Z,4.68
2022-11-21T08:34:33.745Z,4.38
2022-11-21T08:37:03.405Z,4.90
2022-11-21T08:39:32.595Z,4.35
2022-11-21T08:42:04.342Z,4.70
2022-11-21T08:44:36.768Z,4.88
2022-11-21T08:47:06.977Z,5.68
2022-11-21T08:49:37.003Z,11.68
2022-11-21T08:52:06.068Z,7.90
2022-11-21T08:54:34.990Z,6.45
2022-11-21T08:57:03.919Z,7.53
2022-11-21T08:59:33.035Z,4.93
2022-11-21T09:02:01.985Z,9.75
2022-11-21T09:04:31.101Z,5.60
2022-11-21T09:07:00.172Z,4.88
2022-11-21T09:09:29.103Z,4.68
2022-11-21T09:11:58.022Z,5.10
2022-11-21T09:14:45.078Z,5.68
2022-11-21T09:17:33.893Z,4.47
2022-11-21T09:20:02.889Z,4.97
2022-11-21T09:22:31.896Z,4.38
2022-11-21T09:25:00.854Z,4.43
2022-11-21T09:27:29.735Z,4.68
2022-11-21T09:29:58.939Z,4.43
2022-11-21T09:32:27.818Z,4.70
2022-11-21T09:34:56.700Z,4.32
2022-11-21T09:37:26.107Z,6.72
2022-11-21T09:39:54.963Z,5.03
2022-11-21T09:42:54.389Z,4.10
2022-11-21T09:45:34.243Z,7.53
2022-11-21T09:48:15.004Z,4.90
2022-11-21T09:50:53.793Z,4.53
2022-11-21T09:53:30.686Z,4.57
2022-11-21T09:56:12.801Z,4.68
2022-11-21T09:58:52.891Z,4.20
2022-11-21T10:01:21.776Z,4.93
2022-11-21T10:03:56.018Z,5.55
2022-11-21T10:06:32.964Z,5.18
2022-11-21T10:09:24.805Z,4.70
2022-11-21T10:12:11.969Z,5.20
2022-11-21T10:15:08.018Z,4.93
2022-11-21T10:17:58.302Z,5.93
2022-11-21T10:20:48.937Z,7.00
2022-11-21T10:23:39.037Z,6.85
2022-11-21T10:26:37.020Z,6.65
2022-11-21T10:29:23.722Z,7.00
2022-11-21T10:31:56.079Z,6.70
2022-11-21T10:34:31.566Z,6.53
2022-11-21T10:37:27.275Z,6.93
2022-11-21T10:39:57.883Z,6.57
2022-11-21T10:42:45.788Z,7.65
2022-11-21T10:45:19.776Z,6.60
2022-11-21T10:47:54.100Z,7.05
2022-11-21T10:51:03.659Z,7.20
2022-11-21T10:53:51.232Z,6.78
2022-11-21T10:56:24.680Z,7.55
2022-11-21T10:58:59.190Z,10.88
2022-11-21T11:01:34.106Z,8.23
2022-11-21T11:04:29.016Z,7.07
2022-11-21T11:07:01.027Z,8.32
2022-11-21T11:09:35.733Z,7.78
2022-11-21T11:12:26.282Z,7.35
2022-11-21T11:14:57.691Z,7.53
2022-11-21T11:17:32.920Z,8.35
2022-11-21T11:20:06.453Z,9.15
2022-11-21T11:22:35.451Z,12.32
2022-11-21T11:25:06.623Z,15.88
2022-11-21T11:27:38.984Z,21.73
2022-11-21T11:30:09.400Z,22.92
2022-11-21T11:32:42.683Z,22.80
2022-11-21T11:35:24.481Z,16.17
2022-11-21T11:38:04.570Z,13.18
2022-11-21T11:40:45.129Z,13.48
2022-11-21T11:44:50.471Z,12.35
2022-11-21T11:47:32.622Z,13.93
2022-11-21T11:50:23.034Z,14.15
2022-11-21T11:53:09.975Z,12.68
2022-11-21T11:55:51.065Z,10.65
2022-11-21T11:58:26.892Z,11.73
2022-11-21T12:01:01.872Z,13.00
2022-11-21T12:03:47.135Z,12.32
2022-11-21T12:07:17.973Z,13.23
2022-11-21T12:10:16.577Z,14.68
2022-11-21T12:12:54.056Z,14.95
2022-11-21T12:15:54.537Z,16.75
2022-11-21T12:18:52.784Z,14.07
2022-11-21T12:21:22.171Z,13.32
2022-11-21T12:23:52.289Z,14.60
2022-11-21T12:26:39.496Z,13.77
2022-11-21T12:29:33.522Z,12.23
2022-11-21T12:32:29.338Z,12.30
2022-11-21T12:35:16.509Z,13.02
2022-11-21T12:38:03.671Z,13.35
2022-11-21T12:41:32.581Z,13.32
2022-11-21T12:44:15.393Z,11.90
2022-11-21T12:47:12.390Z,13.45
2022-11-21T12:50:38.481Z,12.70
2022-11-21T12:53:54.498Z,12.27
2022-11-21T12:56:53.663Z,11.95
2022-11-21T12:59:22.701Z,12.60
2022-11-21T13:01:56.589Z,12.07
2022-11-21T13:04:47.178Z,10.65
2022-11-21T13:07:16.507Z,12.05
2022-11-21T13:09:50.052Z,11.40
2022-11-21T13:12:42.090Z,11.18
2022-11-21T13:15:38.433Z,12.32
2022-11-21T13:18:22.030Z,12.93
2022-11-21T13:20:53.239Z,13.30
2022-11-21T13:23:42.153Z,13.18
2022-11-21T13:26:32.059Z,13.73
2022-11-21T13:29:12.574Z,13.82
2022-11-21T13:31:44.879Z,13.23
2022-11-21T13:34:39.431Z,11.93
2022-11-21T13:37:08.390Z,14.05
2022-11-21T13:39:38.722Z,14.68
2022-11-21T13:42:35.941Z,14.18
2022-11-21T13:45:51.514Z,13.48
2022-11-21T13:48:51.626Z,13.98
2022-11-21T13:51:38.172Z,13.68
2022-11-21T13:54:25.181Z,14.05
2022-11-21T13:57:29.392Z,12.52
2022-11-21T14:00:07.474Z,12.55
2022-11-21T14:03:11.917Z,12.40
2022-11-21T14:05:51.135Z,12.18
2022-11-21T14:08:25.950Z,12.73
2022-11-21T14:10:58.100Z,11.88
2022-11-21T14:13:31.789Z,11.32
2022-11-21T14:16:25.452Z,12.25
2022-11-21T14:21:35.506Z,12.73
2022-11-21T14:24:14.539Z,12.57
2022-11-21T14:26:50.671Z,10.75
2022-11-21T14:29:39.664Z,12.85
2022-11-21T14:32:16.309Z,12.65
2022-11-21T14:34:45.304Z,10.82
2022-11-21T14:37:15.186Z,11.23
2022-11-21T14:39:45.341Z,11.95
2022-11-21T14:42:19.045Z,11.00
2022-11-21T14:44:48.081Z,11.10
2022-11-21T14:47:26.706Z,11.25
2022-11-21T14:50:02.241Z,10.85
2022-11-21T14:52:35.448Z,11.35
2022-11-21T14:55:30.172Z,11.48
2022-11-21T14:57:59.281Z,11.55
2022-11-21T15:00:58.099Z,11.27
2022-11-21T15:03:23.111Z,11.05
2022-11-21T15:06:06.318Z,11.77
2022-11-21T15:09:18.310Z,12.07
2022-11-21T15:11:35.011Z,11.20
2022-11-21T15:14:16.554Z,12.10
2022-11-21T15:16:50.171Z,10.38
2022-11-21T15:19:26.396Z,10.77
2022-11-21T15:22:01.590Z,10.68
2022-11-21T15:24:41.190Z,12.40
2022-11-21T15:27:47.148Z,9.85
2022-11-21T15:30:16.132Z,9.63
2022-11-21T15:33:06.497Z,10.68
2022-11-21T15:35:44.308Z,9.85
2022-11-21T15:38:28.443Z,11.63
2022-11-21T15:43:45.639Z,10.85
2022-11-21T15:46:35.110Z,8.50
2022-11-21T15:49:30.933Z,9.18
2022-11-21T15:52:11.278Z,9.02
2022-11-21T15:54:40.744Z,8.98
2022-11-21T15:57:11.433Z,8.32
2022-11-21T15:59:40.848Z,9.73
2022-11-21T16:02:17.863Z,9.10
2022-11-21T16:04:46.790Z,9.02
2022-11-21T16:07:15.681Z,8.85
2022-11-21T16:09:46.057Z,8.65
2022-11-21T16:12:15.117Z,8.95
2022-11-21T16:14:44.075Z,8.85
2022-11-21T16:17:12.991Z,9.15
2022-11-21T16:19:42.104Z,8.45
2022-11-21T16:22:10.988Z,8.60
2022-11-21T16:24:39.867Z,9.50
2022-11-21T16:27:08.793Z,9.18
2022-11-21T16:29:37.780Z,10.25
2022-11-21T16:32:06.773Z,9.93
2022-11-21T16:34:35.657Z,9.60
2022-11-21T16:37:07.445Z,9.25
2022-11-21T16:39:37.060Z,9.38
2022-11-21T16:42:06.424Z,11.52
2022-11-21T16:44:35.508Z,11.23
2022-11-21T16:47:08.327Z,12.05
2022-11-21T16:49:43.944Z,11.63
2022-11-21T16:52:13.005Z,11.25
2022-11-21T16:54:42.223Z,11.00
2022-11-21T16:57:11.274Z,11.18
2022-11-21T16:59:40.186Z,11.23
2022-11-21T17:02:09.290Z,11.80
2022-11-21T17:04:38.583Z,10.98
2022-11-21T17:07:07.550Z,11.07
2022-11-21T17:09:36.641Z,12.55
2022-11-21T17:12:05.746Z,12.20
2022-11-21T17:14:34.616Z,11.75
2022-11-21T17:17:03.573Z,11.98
2022-11-21T17:19:32.568Z,12.70
2022-11-21T17:22:01.568Z,12.20
2022-11-21T17:24:30.898Z,13.20
2022-11-21T17:27:03.738Z,11.82
2022-11-21T17:29:32.947Z,11.52
2022-11-21T17:32:01.833Z,13.18
2022-11-21T17:34:33.291Z,12.23
2022-11-21T17:37:02.505Z,12.48
2022-11-21T17:39:32.052Z,11.63
2022-11-21T17:42:01.377Z,11.15
2022-11-21T17:44:31.151Z,10.75
2022-11-21T17:47:03.236Z,11.30
2022-11-21T17:49:38.047Z,11.63
2022-11-21T17:52:08.027Z,11.70
2022-11-21T17:54:37.174Z,11.65
2022-11-21T17:57:06.134Z,11.27
2022-11-21T17:59:35.790Z,13.23
2022-11-21T18:02:05.864Z,12.65
2022-11-21T18:04:35.716Z,13.35
2022-11-21T18:07:04.643Z,13.02
2022-11-21T18:09:33.661Z,12.57
2022-11-21T18:12:02.795Z,11.82
2022-11-21T18:14:32.130Z,12.38
2022-11-21T18:17:01.226Z,11.82
2022-11-21T18:19:30.810Z,12.82
2022-11-21T18:21:59.714Z,14.23
2022-11-21T18:24:30.115Z,12.23
2022-11-21T18:26:59.181Z,13.45
2022-11-21T18:29:36.344Z,13.05
2022-11-21T18:32:07.544Z,13.45
2022-11-21T18:34:36.480Z,13.70
2022-11-21T18:37:05.419Z,12.65
2022-11-21T18:39:34.301Z,12.65
2022-11-21T18:42:03.268Z,12.18
2022-11-21T18:44:32.181Z,13.65
2022-11-21T18:47:01.168Z,13.20
2022-11-21T18:49:30.189Z,12.95
2022-11-21T18:51:59.571Z,14.05
2022-11-21T18:54:28.415Z,12.35
2022-11-21T18:56:58.330Z,12.50
2022-11-21T18:59:27.692Z,12.68
2022-11-21T19:01:57.059Z,13.15
2022-11-21T19:04:26.954Z,11.65
2022-11-21T19:06:56.462Z,11.73
2022-11-21T19:09:29.523Z,12.43
2022-11-21T19:12:01.292Z,12.20
2022-11-21T19:14:30.454Z,12.65
2022-11-21T19:16:59.676Z,12.25
2022-11-21T19:19:35.032Z,12.07
2022-11-21T19:22:06.818Z,12.65
2022-11-21T19:24:35.711Z,11.10
2022-11-21T19:27:04.666Z,12.45
2022-11-21T19:29:34.256Z,10.68
2022-11-21T19:32:03.315Z,10.93
2022-11-21T19:34:32.267Z,11.55
2022-11-21T19:37:01.192Z,12.93
2022-11-21T19:39:31.543Z,11.52
2022-11-21T19:42:00.612Z,12.93
2022-11-21T19:44:29.581Z,12.48
2022-11-21T19:46:58.459Z,13.88
2022-11-21T19:49:27.573Z,13.18
2022-11-21T19:51:56.695Z,12.95
2022-11-21T19:54:25.594Z,12.45
2022-11-21T19:56:54.499Z,13.35
2022-11-21T19:59:23.845Z,12.75
2022-11-21T20:01:53.220Z,12.00
2022-11-21T20:04:22.264Z,12.68
2022-11-21T20:06:51.543Z,12.43
2022-11-21T20:09:27.648Z,12.73
2022-11-21T20:11:58.878Z,12.75
2022-11-21T20:14:27.802Z,12.77
2022-11-21T20:16:57.062Z,12.90
2022-11-21T20:19:27.820Z,12.88
2022-11-21T20:21:57.261Z,12.75
2022-11-21T20:24:26.175Z,14.20
2022-11-21T20:26:55.137Z,14.15
2022-11-21T20:29:24.086Z,14.75
2022-11-21T20:31:53.077Z,13.98
2022-11-21T20:34:22.259Z,15.02
2022-11-21T20:36:52.393Z,15.57
2022-11-21T20:39:22.605Z,14.13
2022-11-21T20:41:51.680Z,15.73
2022-11-21T20:47:11.701Z,14.98
2022-11-21T20:49:40.692Z,16.00
2022-11-21T20:54:58.424Z,16.05
2022-11-21T20:57:28.616Z,16.10
2022-11-21T20:59:57.495Z,14.52
2022-11-21T21:02:26.522Z,15.45
2022-11-21T21:04:55.465Z,15.20
2022-11-21T21:07:24.406Z,15.05
2022-11-21T21:09:54.663Z,14.50
2022-11-21T21:12:25.033Z,15.15
2022-11-21T21:14:53.922Z,13.55
2022-11-21T21:17:22.805Z,12.93
2022-11-21T21:19:51.720Z,13.23
2022-11-21T21:22:20.671Z,14.38
2022-11-21T21:24:49.594Z,14.27
2022-11-21T21:27:18.982Z,14.52
2022-11-21T21:29:47.838Z,16.88
2022-11-21T21:32:16.813Z,16.15
2022-11-21T21:34:45.766Z,16.98
2022-11-21T21:37:14.770Z,16.80
2022-11-21T21:39:43.759Z,15.25
2022-11-21T21:42:12.702Z,15.20
2022-11-21T21:44:41.580Z,15.07
2022-11-21T21:47:12.360Z,16.05
2022-11-21T21:49:42.313Z,15.82
2022-11-21T21:52:11.342Z,16.98
2022-11-21T21:54:40.574Z,17.23
2022-11-21T21:57:09.549Z,19.38
2022-11-21T21:59:38.561Z,18.08
2022-11-21T22:02:07.672Z,18.38
2022-11-21T22:04:36.596Z,17.83
2022-11-21T22:07:06.641Z,15.73
2022-11-21T22:09:35.736Z,17.38
2022-11-21T22:12:04.709Z,16.13
2022-11-21T22:14:33.655Z,17.88
2022-11-21T22:17:02.565Z,16.50
2022-11-21T22:19:31.693Z,15.80
2022-11-21T22:22:00.671Z,16.08
2022-11-21T22:24:29.597Z,16.02
2022-11-21T22:26:58.864Z,16.40
2022-11-21T22:29:27.915Z,18.10
2022-11-21T22:31:57.103Z,19.42
2022-11-21T22:34:25.999Z,16.60
2022-11-21T22:36:54.868Z,15.80
2022-11-21T22:39:23.702Z,15.30
2022-11-21T22:41:56.998Z,15.27
2022-11-21T22:44:28.885Z,15.57
2022-11-21T22:46:57.994Z,20.33
2022-11-21T22:49:27.128Z,25.30
2022-11-21T22:51:56.104Z,23.65
2022-11-21T22:54:24.997Z,16.55
2022-11-21T22:56:53.909Z,16.45
2022-11-21T22:59:22.800Z,21.63
2022-11-21T23:01:51.985Z,15.70
2022-11-21T23:04:20.937Z,15.73
2022-11-21T23:06:49.779Z,17.63
2022-11-21T23:09:18.628Z,16.85
2022-11-21T23:11:47.478Z,17.10
2022-11-21T23:14:16.364Z,16.40
2022-11-21T23:16:45.236Z,15.80
2022-11-21T23:19:14.125Z,20.35
2022-11-21T23:21:43.001Z,17.10
2022-11-21T23:24:12.071Z,16.17
2022-11-21T23:26:41.110Z,20.42
2022-11-21T23:29:10.145Z,17.88
2022-11-21T23:31:39.042Z,19.15
2022-11-21T23:34:08.126Z,17.50
2022-11-21T23:36:37.082Z,16.85
2022-11-21T23:39:06.414Z,18.55
2022-11-21T23:41:35.326Z,16.50
2022-11-21T23:44:04.432Z,16.90
2022-11-21T23:46:33.326Z,17.35
2022-11-21T23:49:02.269Z,16.38
2022-11-21T23:51:31.230Z,17.42
2022-11-21T23:54:00.156Z,17.50
2022-11-21T23:56:29.050Z,17.33
2022-11-21T23:58:57.927Z,17.17
